Current Weather Conditions: station 63103

sailwx.info

Wind from 170 at 27 knots

Wave height 3.0 meters (9 feet), 6 second period

Air temperature 14.4° C
Dewpoint 13.2° C

Last reported at 2017-Aug-17 07:00 UTC.
Time now 2017-Aug-17 08:02 UTC

Location: N 61°12' E 001°06'.
View on Google Maps.

See reports from other nearby stations

  
Tides and Currents Weather Stations Pressure Air Temp Water Temp Dewpoint Dewpoint Depression Visibility Wind Speed Wind Dir Waves Ship Positions
date/time (UTC)wind fromknots sea level pressurealtimeterstation pressurevisibilityair tempwater tempwave heightnotes
2017-Aug-17 07:00 170 27 14.4 3.0
2017-Aug-17 06:00 170 29 14.5 3.1
2017-Aug-17 05:00 170 29 14.2 3.1
2017-Aug-17 04:00 170 32 14.2 2.8
2017-Aug-17 03:00 180 31 14.0 2.7
2017-Aug-17 02:00 180 28 14.1 2.5
2017-Aug-17 01:00 180 29 14.3 2.4
2017-Aug-17 00:00 180 29 14.5 2.1
2017-Aug-16 23:00 180 28 14.5 2.0
2017-Aug-16 22:00 180 29 14.4 1.8
2017-Aug-16 21:00 170 26 14.3 1.6
2017-Aug-16 20:00 170 22 14.1 1.5
2017-Aug-16 19:00 180 21 14.0 1.5
2017-Aug-16 18:00 180 20 14.0 1.4
2017-Aug-16 17:00 180 20 13.8 1.4
2017-Aug-16 16:00 190 19 13.8 1.4
2017-Aug-16 15:00 190 20 13.8 1.5
2017-Aug-16 14:00 200 15 13.7 1.4
2017-Aug-16 13:00 210 18 13.5 1.4
2017-Aug-16 12:00 220 15 13.5 1.5
2017-Aug-16 11:00 230 17 13.5 1.6
2017-Aug-16 10:00 230 15 13.4 1.5
2017-Aug-16 09:00 240 15 13.3 1.6
2017-Aug-16 08:00 230 13 13.2 1.6
2017-Aug-16 07:00 230 13 13.2 1.6
2017-Aug-16 06:00 230 15 13.0 1.8
2017-Aug-16 05:00 240 13 13.1 1.8
2017-Aug-16 04:00 240 17 13.2 1.8
2017-Aug-16 03:00 240 13 13.2 1.8
2017-Aug-16 02:00 240 13 13.2 2.0
2017-Aug-16 01:00 240 17 13.4 2.0
2017-Aug-16 00:00 230 17 13.7 2.1
2017-Aug-15 23:00 220 20 13.8 2.2
2017-Aug-15 22:00 230 19 13.7 2.3
2017-Aug-15 21:00 230 20 13.5 2.5
2017-Aug-15 20:00 230 19 13.5 2.3
2017-Aug-15 19:00 220 20 13.6 2.8
2017-Aug-15 18:00 220 20 13.7 2.9
2017-Aug-15 17:00 240 20 13.7 3.0
2017-Aug-15 16:00 240 22 13.8 3.0
2017-Aug-15 15:00 250 27 13.2 3.2
2017-Aug-15 14:00 170 22 14.4 3.2
2017-Aug-15 13:00 160 25 14.0 3.1
2017-Aug-15 12:00 140 32 13.5 2.9
2017-Aug-15 11:00 150 27 13.9 2.6
2017-Aug-15 10:00 160 25 14.0 2.4
2017-Aug-15 09:00 160 24 14.1 2.4
2017-Aug-15 08:00 160 19 14.3 2.3